Airfield :
LOGIN :

Register | Disclaimer

   EN    FR    IT 

 










Legend :    VFR   Marginal VFR   IFR   Intensive IFR   Very Intensive IFR
Visi :
Ceiling :
>= 8 km
>= 3000ft
5 to 8 km
1000 to 3000 ft
1500m to 5 km
500 to 1000 ft
800 to 1500m
200 to 500 ft
< 800m
< 200 ft
Symbols :   Thunderstorms  Fog  Heavy snow  Heavy precipitations  Wind > 20 kt
SIGMETs :     Misc.  Thunderstorms  Icing  Turbulence  Mountain Waves  Volcanic Ashes






- Airport Elevation : 489 ft
- IATA code : GDN


EPGD - Gdansk

CURRENT METAR :
  • 011200Z 23014KT 9999 BKN023 05/M00 Q1012

EXPIRED METARs :
  • 011130Z 24013KT 9999 BKN018 04/M00 Q1013
  • 011100Z 24013KT 9999 BKN016 03/M00 Q1013
  • 011030Z 25014KT 9999 BKN015 03/M00 Q1013
  • 011000Z 24014KT 9999 BKN013 03/M00 Q1013
  • 010930Z 25015KT 210V270 9999 BKN016 03/M01 Q1013

TAF TAF EPGD
Valid from the 01 at 12:00 until the 02 at 12:00 UTC


011130Z 0112/0212 25012KT 9999 BKN017
TEMPO 0112/0124 26016G26KT BKN012
BECMG 0200/0202 BKN012
TEMPO 0202/0206 BKN007
BECMG 0209/0211 BKN020
TEMPO 0209/0212 26020G32KT



MET'MAP, your aeronautical weather chart ! - Copyright ORBIFLY December 2007 - Disclaimer

ORBIFLY MET'MAP TEAM :

Programming & Development : Alexandra Zaïnal
Concept & original design : Baudouin d'Aumeries
Assistance for programming : Marc-Olivier Méhu
Technical & hardware support : Manuel Goepfert

Contact : metmap@orbifly.com




SOURCES & CREDITS :

   NOAA